Eira — OJJP — position and weather

sailwx.info

Track history (hours):
 
Tides and Currents Weather Stations Pressure Air Temp Water Temp Dewpoint Dewpoint Depression Visibility Wind Speed Wind Dir Waves Ship Positions

Eira

Last reported at 2017-Feb-23 10:27 UTC. Time now 2017-Feb-25 02:28 UTC.
Position N 59°60' E 026°20'.

Length 157 m; draft 8.9 m.

Type: Cargo ship. MMSI: 230935000.

Date/timePositionNaut miles runAvg speedWind from/ knotsBaromVisibWave heightAir tempDewpointWater temp
2017-Feb-23 10:27N 59°60' E 026°20'1513.2
2017-Feb-23 09:20N 60°00' E 026°50'1612.3
2017-Feb-23 08:03N 60°05' E 027°20'812.4
2017-Feb-23 07:23N 60°09' E 027°34'911.0
2017-Feb-23 06:33N 60°11' E 027°52'1212.2
2017-Feb-23 05:33N 60°07' E 028°15'1111.0
2017-Feb-23 04:34N 60°02' E 028°34'10 9.5
2017-Feb-23 03:33N 59°53' E 028°30'1110.8
2017-Feb-23 02:33N 59°42' E 028°25'1 0.8
2017-Feb-23 01:30N 59°41' E 028°25'0 0.0
2017-Feb-23 00:30N 59°41' E 028°25'0 0.0
2017-Feb-22 23:33N 59°41' E 028°25'0 0.0
2017-Feb-22 22:33N 59°41' E 028°25'0 0.0
2017-Feb-22 21:33N 59°41' E 028°25'0 0.0
2017-Feb-22 20:33N 59°41' E 028°25'0 0.0
2017-Feb-22 19:33N 59°41' E 028°25'0 0.0
2017-Feb-22 18:33N 59°41' E 028°25'0 0.0
2017-Feb-22 17:33N 59°41' E 028°25'0 0.0
2017-Feb-22 16:24N 59°41' E 028°25'0 0.0
2017-Feb-22 15:27N 59°41' E 028°25'0 0.0
2017-Feb-22 14:27N 59°41' E 028°25'0 0.0
2017-Feb-22 13:27N 59°41' E 028°25'0 0.0
2017-Feb-22 12:30N 59°41' E 028°25'0 0.0
2017-Feb-22 11:30N 59°41' E 028°25'0 0.0
2017-Feb-22 10:33N 59°41' E 028°25'0 0.0
2017-Feb-22 09:33N 59°41' E 028°25'0 0.0
2017-Feb-22 08:33N 59°41' E 028°25'0 0.0
2017-Feb-22 07:33N 59°41' E 028°25'0 0.0
2017-Feb-22 06:33N 59°41' E 028°25'0 0.0
2017-Feb-22 05:33N 59°41' E 028°25'0 0.0
2017-Feb-22 04:33N 59°41' E 028°25'0 0.0
2017-Feb-22 03:33N 59°41' E 028°25'0 0.0
2017-Feb-22 02:24N 59°41' E 028°25'0 0.0
2017-Feb-22 01:27N 59°41' E 028°25'0 0.0
2017-Feb-22 00:27N 59°41' E 028°25'2 2.5
2017-Feb-21 23:32N 59°43' E 028°23'1111.4
2017-Feb-21 22:33N 59°54' E 028°31'8 8.0
2017-Feb-21 21:33N 60°01' E 028°36'1110.5
2017-Feb-21 20:33N 60°06' E 028°17'1211.9
2017-Feb-21 19:34N 60°10' E 027°55'1211.6
2017-Feb-21 18:34N 60°07' E 027°32'1212.3
2017-Feb-21 17:33N 60°00' E 027°11'1211.7
2017-Feb-21 16:34N 59°59' E 026°48'1212.1
2017-Feb-21 15:33N 59°57' E 026°24'  
2017-Feb-19 06:33N 59°60' E 026°21'1010.2
2017-Feb-19 05:34N 60°01' E 026°41'2010.2
2017-Feb-19 03:33N 60°05' E 027°21'1110.6
2017-Feb-19 02:32N 60°10' E 027°40'1010.3
2017-Feb-19 01:33N 60°10' E 028°00'9 9.3
2017-Feb-19 00:34N 60°07' E 028°18'10 9.8
2017-Feb-18 23:34N 60°01' E 028°34'6 6.3
2017-Feb-18 22:33N 59°55' E 028°33'5 4.9
2017-Feb-18 21:33N 59°51' E 028°27'9 9.4
2017-Feb-18 20:33N 59°42' E 028°25'1 0.6
2017-Feb-18 19:31N 59°41' E 028°25'0 0.0
2017-Feb-18 18:31N 59°41' E 028°25'0 0.0
2017-Feb-18 17:22N 59°41' E 028°25'0 0.0
2017-Feb-18 16:25N 59°41' E 028°25'0 0.0
2017-Feb-18 15:25N 59°41' E 028°25'0 0.0
2017-Feb-18 14:22N 59°41' E 028°25'0 0.0
2017-Feb-18 13:28N 59°41' E 028°25'0 0.0
2017-Feb-18 12:28N 59°41' E 028°25'0 0.0
2017-Feb-18 11:31N 59°41' E 028°25'0 0.0
2017-Feb-18 10:31N 59°41' E 028°25'0 0.0
2017-Feb-18 09:31N 59°41' E 028°25'0 0.0
2017-Feb-18 08:31N 59°41' E 028°25'0 0.0
2017-Feb-18 07:31N 59°41' E 028°25'0 0.0
2017-Feb-18 06:31N 59°41' E 028°25'0 0.0
2017-Feb-18 05:31N 59°41' E 028°25'0 0.0
2017-Feb-18 04:31N 59°41' E 028°25'0 0.0
2017-Feb-18 03:33N 59°41' E 028°25'4 4.3
2017-Feb-18 02:33N 59°45' E 028°24'10 9.6
2017-Feb-18 01:33N 59°54' E 028°32'4 3.7
2017-Feb-18 00:33N 59°54' E 028°39'0 0.0
2017-Feb-17 23:33N 59°54' E 028°39'0 0.0
2017-Feb-17 22:34N 59°54' E 028°39'0 0.0
2017-Feb-17 21:33N 59°54' E 028°39'0 0.1
2017-Feb-17 20:33N 59°54' E 028°39'0 0.2
2017-Feb-17 19:34N 59°54' E 028°39'0 0.1
2017-Feb-17 18:33N 59°54' E 028°39'0 0.0
2017-Feb-17 17:33N 59°54' E 028°39'0 0.0
2017-Feb-17 16:33N 59°54' E 028°39'0 0.0
2017-Feb-17 15:33N 59°54' E 028°39'0 0.0
2017-Feb-17 14:33N 59°54' E 028°39'0 0.1
2017-Feb-17 13:33N 59°54' E 028°39'0 0.1
2017-Feb-17 12:33N 59°54' E 028°39'0 0.0
2017-Feb-17 11:33N 59°54' E 028°39'0 0.0
2017-Feb-17 10:34N 59°54' E 028°39'0 0.0
2017-Feb-17 09:33N 59°54' E 028°39'3 3.3
2017-Feb-17 08:34N 59°57' E 028°35'10 9.7
2017-Feb-17 07:33N 60°04' E 028°22'1110.8
2017-Feb-17 06:33N 60°09' E 028°03'1010.4
2017-Feb-17 05:33N 60°09' E 027°42'1312.6
2017-Feb-17 04:33N 60°03' E 027°20'1312.1
2017-Feb-17 03:30N 59°58' E 026°56'1212.4
2017-Feb-17 02:34N 59°59' E 026°33'1412.7
2017-Feb-17 01:28N 59°55' E 026°06'  
2017-Feb-14 02:30N 60°01' E 024°58'41 6.7
2017-Feb-13 20:18N 59°60' E 026°21'5 6.9
2017-Feb-13 19:33N 60°01' E 026°30'7 6.8
2017-Feb-13 18:33N 60°01' E 026°44'7 6.8
2017-Feb-13 17:31N 59°60' E 026°58'8 6.6
2017-Feb-13 16:21N 60°03' E 027°12'6 7.2
2017-Feb-13 15:33N 60°05' E 027°22'9 7.1
2017-Feb-13 14:19N 60°10' E 027°37'5 6.8
2017-Feb-13 13:32N 60°12' E 027°47'7 7.6
2017-Feb-13 12:33N 60°10' E 028°02'8 8.0
2017-Feb-13 11:33N 60°08' E 028°17'7 7.3
2017-Feb-13 10:33N 60°04' E 028°30'  
Track history (hours):
 
Tides and Currents Weather Stations Pressure Air Temp Water Temp Dewpoint Dewpoint Depression Visibility Wind Speed Wind Dir Waves Ship Positions

Eira

Last reported at 2017-Feb-23 10:27 UTC. Time now 2017-Feb-25 02:28 UTC.
Position N 59°60' E 026°20'.

Length 157 m; draft 8.9 m.

Type: Cargo ship. MMSI: 230935000.

Date/timePositionNaut miles runAvg speedWind from/ knotsBaromVisibWave heightAir tempDewpointWater temp
2017-Feb-23 10:27N 59°60' E 026°20'1513.2
2017-Feb-23 09:20N 60°00' E 026°50'1612.3
2017-Feb-23 08:03N 60°05' E 027°20'812.4
2017-Feb-23 07:23N 60°09' E 027°34'911.0
2017-Feb-23 06:33N 60°11' E 027°52'1212.2
2017-Feb-23 05:33N 60°07' E 028°15'1111.0
2017-Feb-23 04:34N 60°02' E 028°34'10 9.5
2017-Feb-23 03:33N 59°53' E 028°30'1110.8
2017-Feb-23 02:33N 59°42' E 028°25'1 0.8
2017-Feb-23 01:30N 59°41' E 028°25'0 0.0
2017-Feb-23 00:30N 59°41' E 028°25'0 0.0
2017-Feb-22 23:33N 59°41' E 028°25'0 0.0
2017-Feb-22 22:33N 59°41' E 028°25'0 0.0
2017-Feb-22 21:33N 59°41' E 028°25'0 0.0
2017-Feb-22 20:33N 59°41' E 028°25'0 0.0
2017-Feb-22 19:33N 59°41' E 028°25'0 0.0
2017-Feb-22 18:33N 59°41' E 028°25'0 0.0
2017-Feb-22 17:33N 59°41' E 028°25'0 0.0
2017-Feb-22 16:24N 59°41' E 028°25'0 0.0
2017-Feb-22 15:27N 59°41' E 028°25'0 0.0
2017-Feb-22 14:27N 59°41' E 028°25'0 0.0
2017-Feb-22 13:27N 59°41' E 028°25'0 0.0
2017-Feb-22 12:30N 59°41' E 028°25'0 0.0
2017-Feb-22 11:30N 59°41' E 028°25'0 0.0
2017-Feb-22 10:33N 59°41' E 028°25'0 0.0
2017-Feb-22 09:33N 59°41' E 028°25'0 0.0
2017-Feb-22 08:33N 59°41' E 028°25'0 0.0
2017-Feb-22 07:33N 59°41' E 028°25'0 0.0
2017-Feb-22 06:33N 59°41' E 028°25'0 0.0
2017-Feb-22 05:33N 59°41' E 028°25'0 0.0
2017-Feb-22 04:33N 59°41' E 028°25'0 0.0
2017-Feb-22 03:33N 59°41' E 028°25'0 0.0
2017-Feb-22 02:24N 59°41' E 028°25'0 0.0
2017-Feb-22 01:27N 59°41' E 028°25'0 0.0
2017-Feb-22 00:27N 59°41' E 028°25'2 2.5
2017-Feb-21 23:32N 59°43' E 028°23'1111.4
2017-Feb-21 22:33N 59°54' E 028°31'8 8.0
2017-Feb-21 21:33N 60°01' E 028°36'1110.5
2017-Feb-21 20:33N 60°06' E 028°17'1211.9
2017-Feb-21 19:34N 60°10' E 027°55'1211.6
2017-Feb-21 18:34N 60°07' E 027°32'1212.3
2017-Feb-21 17:33N 60°00' E 027°11'1211.7
2017-Feb-21 16:34N 59°59' E 026°48'1212.1
2017-Feb-21 15:33N 59°57' E 026°24'  
2017-Feb-19 06:33N 59°60' E 026°21'1010.2
2017-Feb-19 05:34N 60°01' E 026°41'2010.2
2017-Feb-19 03:33N 60°05' E 027°21'1110.6
2017-Feb-19 02:32N 60°10' E 027°40'1010.3
2017-Feb-19 01:33N 60°10' E 028°00'9 9.3
2017-Feb-19 00:34N 60°07' E 028°18'10 9.8
2017-Feb-18 23:34N 60°01' E 028°34'6 6.3
2017-Feb-18 22:33N 59°55' E 028°33'5 4.9
2017-Feb-18 21:33N 59°51' E 028°27'9 9.4
2017-Feb-18 20:33N 59°42' E 028°25'1 0.6
2017-Feb-18 19:31N 59°41' E 028°25'0 0.0
2017-Feb-18 18:31N 59°41' E 028°25'0 0.0
2017-Feb-18 17:22N 59°41' E 028°25'0 0.0
2017-Feb-18 16:25N 59°41' E 028°25'0 0.0
2017-Feb-18 15:25N 59°41' E 028°25'0 0.0
2017-Feb-18 14:22N 59°41' E 028°25'0 0.0
2017-Feb-18 13:28N 59°41' E 028°25'0 0.0
2017-Feb-18 12:28N 59°41' E 028°25'0 0.0
2017-Feb-18 11:31N 59°41' E 028°25'0 0.0
2017-Feb-18 10:31N 59°41' E 028°25'0 0.0
2017-Feb-18 09:31N 59°41' E 028°25'0 0.0
2017-Feb-18 08:31N 59°41' E 028°25'0 0.0
2017-Feb-18 07:31N 59°41' E 028°25'0 0.0
2017-Feb-18 06:31N 59°41' E 028°25'0 0.0
2017-Feb-18 05:31N 59°41' E 028°25'0 0.0
2017-Feb-18 04:31N 59°41' E 028°25'0 0.0
2017-Feb-18 03:33N 59°41' E 028°25'4 4.3
2017-Feb-18 02:33N 59°45' E 028°24'10 9.6
2017-Feb-18 01:33N 59°54' E 028°32'4 3.7
2017-Feb-18 00:33N 59°54' E 028°39'0 0.0
2017-Feb-17 23:33N 59°54' E 028°39'0 0.0
2017-Feb-17 22:34N 59°54' E 028°39'0 0.0
2017-Feb-17 21:33N 59°54' E 028°39'0 0.1
2017-Feb-17 20:33N 59°54' E 028°39'0 0.2
2017-Feb-17 19:34N 59°54' E 028°39'0 0.1
2017-Feb-17 18:33N 59°54' E 028°39'0 0.0
2017-Feb-17 17:33N 59°54' E 028°39'0 0.0
2017-Feb-17 16:33N 59°54' E 028°39'0 0.0
2017-Feb-17 15:33N 59°54' E 028°39'0 0.0
2017-Feb-17 14:33N 59°54' E 028°39'0 0.1
2017-Feb-17 13:33N 59°54' E 028°39'0 0.1
2017-Feb-17 12:33N 59°54' E 028°39'0 0.0
2017-Feb-17 11:33N 59°54' E 028°39'0 0.0
2017-Feb-17 10:34N 59°54' E 028°39'0 0.0
2017-Feb-17 09:33N 59°54' E 028°39'3 3.3
2017-Feb-17 08:34N 59°57' E 028°35'10 9.7
2017-Feb-17 07:33N 60°04' E 028°22'1110.8
2017-Feb-17 06:33N 60°09' E 028°03'1010.4
2017-Feb-17 05:33N 60°09' E 027°42'1312.6
2017-Feb-17 04:33N 60°03' E 027°20'1312.1
2017-Feb-17 03:30N 59°58' E 026°56'1212.4
2017-Feb-17 02:34N 59°59' E 026°33'1412.7
2017-Feb-17 01:28N 59°55' E 026°06'  
2017-Feb-14 02:30N 60°01' E 024°58'41 6.7
2017-Feb-13 20:18N 59°60' E 026°21'5 6.9
2017-Feb-13 19:33N 60°01' E 026°30'7 6.8
2017-Feb-13 18:33N 60°01' E 026°44'7 6.8
2017-Feb-13 17:31N 59°60' E 026°58'8 6.6
2017-Feb-13 16:21N 60°03' E 027°12'6 7.2
2017-Feb-13 15:33N 60°05' E 027°22'9 7.1
2017-Feb-13 14:19N 60°10' E 027°37'5 6.8
2017-Feb-13 13:32N 60°12' E 027°47'7 7.6
2017-Feb-13 12:33N 60°10' E 028°02'8 8.0
2017-Feb-13 11:33N 60°08' E 028°17'7 7.3
2017-Feb-13 10:33N 60°04' E 028°30'  

Dump ship's entire track history